NCAR-RAP Real-Time Weather Data

Output produced by METARs form (08 May 2021  02:31 UTC)
found at http://weather.rap.ucar.edu/surface/
 
KLYH 080154Z 00000KT 10SM CLR 08/03 A2995 RMK AO2 SLP142 T00780028
KLYH 080054Z 00000KT 10SM CLR 11/02 A2993 RMK AO2 SLP134 T01060017
KLYH 072354Z VRB03KT 10SM CLR 13/01 A2992 RMK AO2 SLP131 60000 T01330006 10178 20122 53021
KLYH 072254Z 01009G14KT 10SM BKN070 BKN080 16/02 A2990 RMK AO2 SLP124 T01610017
KLYH 072154Z 30007G15KT 270V330 10SM FEW070 17/02 A2987 RMK AO2 SLP114 T01720017
KLYH 072054Z 28007G18KT 230V360 10SM FEW050 18/04 A2986 RMK AO2 LTG DSNT E RAE1956 SLP109 P0000 60000 T01780039 56010
KLYH 071954Z 25007KT 10SM -RA SCT048 BKN090 OVC110 13/07 A2987 RMK AO2 LTG DSNT S RAB42 SLP113 P0000 T01280072
KLYH 071854Z 27009G15KT 210V300 10SM FEW035 FEW042 SCT120 17/06 A2988 RMK AO2 SLP114 T01670061
KLYH 071754Z VRB05KT 10SM FEW060 OVC090 15/07 A2989 RMK AO2 RAE37 SLP121 P0000 60000 T01500072 10161 20111 58002
KLYH 071654Z VRB06G15KT 10SM -RA SCT039 BKN048 OVC055 13/06 A2990 RMK AO2 LTG DSNT S RAB48 SLP124 P0000 T01330061
KLYH 071646Z 29008G15KT 10SM BKN039 OVC047 14/07 A2990 RMK AO2 T01390067
KLYH 071631Z 25005KT 10SM VCTS BKN041 BKN050 OVC070 15/06 A2990 RMK AO2 T01500056
KLYH 071554Z VRB04KT 10SM FEW029 BKN050 16/06 A2989 RMK AO2 LTG DSNT S SLP121 T01560056
KLYH 071454Z 17007KT 10SM FEW027 BKN040 OVC070 14/08 A2990 RMK AO2 SLP122 T01390083 51005
KLYH 071354Z 17006KT 10SM BKN033 BKN044 BKN085 13/07 A2990 RMK AO2 SLP121 T01280072
KLYH 071254Z 00000KT 10SM BKN034 OVC110 12/06 A2989 RMK AO2 SLP121 T01220056
KLYH 071154Z 01004KT 10SM BKN090 12/06 A2988 RMK AO2 LTG DSNT S SLP115 T01170056 10117 20072 55004
KLYH 071054Z 36004KT 10SM FEW085 08/06 A2988 RMK AO2 SLP115 T00830056